Time;durP1;ratioP1;P1;durP2;ratioP2;P2;SDS_P1;SDS_P2;PMS_P1;PMS_P2;Temp;Humidity;BMP_temperature;BMP_pressure;BME280_temperature;BME280_humidity;BME280_pressure;Samples;Min_cycle;Max_cycle;Signal;HPM_P1;HPM_P2
2021/09/26 00:00:51;;;;;;;2.57;2.37;;;;;;;15.35;100.00;100573.38;5113366;27;20180;-72
2021/09/26 00:03:17;;;;;;;3.27;3.03;;;;;;;15.36;100.00;100579.69;5131868;27;20168;-72
2021/09/26 00:05:42;;;;;;;2.70;2.50;;;;;;;15.46;100.00;100579.22;5113198;27;20189;-72
2021/09/26 00:08:08;;;;;;;2.57;2.37;;;;;;;15.48;100.00;100571.47;5131723;27;20200;-72
2021/09/26 00:10:33;;;;;;;2.43;2.23;;;;;;;15.41;100.00;100580.28;5131916;27;20648;-72
2021/09/26 00:12:59;;;;;;;2.40;2.20;;;;;;;15.29;100.00;100569.22;5131918;27;20662;-72
2021/09/26 00:15:25;;;;;;;2.50;2.30;;;;;;;15.27;100.00;100574.25;5131580;27;20406;-72
2021/09/26 00:17:51;;;;;;;2.63;2.43;;;;;;;15.28;100.00;100573.13;5131836;27;20180;-72
2021/09/26 00:20:18;;;;;;;4.20;2.40;;;;;;;15.24;100.00;100580.44;5131698;27;20688;-72
2021/09/26 00:22:44;;;;;;;2.77;2.57;;;;;;;15.17;100.00;100574.69;5131746;27;20176;-72
2021/09/26 00:25:11;;;;;;;2.53;2.33;;;;;;;15.22;100.00;100570.94;5131590;27;20176;-72
2021/09/26 00:27:37;;;;;;;2.47;2.30;;;;;;;15.22;100.00;100577.25;5131739;27;20184;-72
2021/09/26 00:30:04;;;;;;;2.83;2.63;;;;;;;15.22;100.00;100576.44;5131587;27;20204;-72
2021/09/26 00:32:30;;;;;;;3.43;2.73;;;;;;;15.34;100.00;100580.03;5131629;28;20180;-72
2021/09/26 00:34:55;;;;;;;3.00;2.80;;;;;;;15.32;100.00;100576.78;5131261;28;20682;-72
2021/09/26 00:37:20;;;;;;;2.77;2.57;;;;;;;15.05;100.00;100580.16;5131745;28;20172;-72
2021/09/26 00:39:46;;;;;;;3.13;2.77;;;;;;;15.15;100.00;100583.28;5131677;28;20658;-71
2021/09/26 00:42:12;;;;;;;4.83;2.40;;;;;;;15.20;100.00;100578.72;5131451;27;20176;-72
2021/09/26 00:44:37;;;;;;;4.27;2.97;;;;;;;15.20;100.00;100570.47;5131133;27;20183;-72
2021/09/26 00:47:03;;;;;;;2.23;2.03;;;;;;;15.12;100.00;100575.72;5131392;28;20173;-72
2021/09/26 00:49:28;;;;;;;2.47;2.27;;;;;;;14.95;100.00;100573.13;5131453;28;20199;-71
2021/09/26 00:51:53;;;;;;;2.83;2.40;;;;;;;14.81;100.00;100569.84;5131516;28;20165;-72
2021/09/26 00:54:19;;;;;;;3.17;2.33;;;;;;;14.79;100.00;100574.88;5131235;28;20204;-72
2021/09/26 00:56:49;;;;;;;2.73;2.53;;;;;;;14.77;100.00;100577.97;5131433;28;20168;-72
2021/09/26 00:59:17;;;;;;;2.60;2.40;;;;;;;14.66;100.00;100579.50;5131330;28;20173;-72
2021/09/26 01:01:42;;;;;;;3.07;2.87;;;;;;;14.54;100.00;100571.19;5133438;27;20683;-72
2021/09/26 01:04:08;;;;;;;2.87;2.60;;;;;;;14.32;100.00;100558.56;5135116;27;20251;-72
2021/09/26 01:07:08;;;;;;;3.30;2.80;;;;;;;14.50;100.00;100570.25;5135309;27;20204;-72
2021/09/26 01:09:45;;;;;;;2.97;2.77;;;;;;;14.41;100.00;100574.97;5083409;27;20232;-72
2021/09/26 01:12:36;;;;;;;3.63;2.30;;;;;;;14.52;100.00;100573.47;5135688;27;20554;-72
2021/09/26 01:15:26;;;;;;;2.70;2.30;;;;;;;14.54;100.00;100568.44;5135133;27;20180;-72
2021/09/26 01:18:15;;;;;;;2.37;2.17;;;;;;;14.64;100.00;100573.53;5135271;27;20644;-72
2021/09/26 01:21:03;;;;;;;2.40;2.20;;;;;;;14.71;100.00;100570.25;5134885;27;20173;-71
2021/09/26 01:24:05;;;;;;;2.43;2.30;;;;;;;14.66;100.00;100571.25;5135228;27;20196;-72
2021/09/26 01:27:06;;;;;;;2.47;1.97;;;;;;;14.57;100.00;100570.50;5134935;27;20233;-72
2021/09/26 01:29:55;;;;;;;2.30;2.20;;;;;;;14.32;100.00;100566.78;5135148;27;20288;-72
2021/09/26 01:32:22;;;;;;;2.77;2.57;;;;;;;14.11;100.00;100558.50;5134891;27;20168;-72
2021/09/26 01:34:51;;;;;;;2.47;2.27;;;;;;;14.19;100.00;100568.66;5134552;27;20185;-72
2021/09/26 01:37:46;;;;;;;2.73;2.50;;;;;;;13.79;100.00;100561.91;5134766;27;20216;-72
2021/09/26 01:40:30;;;;;;;2.77;2.57;;;;;;;14.04;100.00;100563.72;5134736;27;20176;-72
2021/09/26 01:43:02;;;;;;;2.60;2.40;;;;;;;14.16;100.00;100566.53;5134627;27;20176;-72
2021/09/26 01:45:51;;;;;;;2.23;2.10;;;;;;;14.14;100.00;100562.53;5134351;27;20168;-72
2021/09/26 01:48:21;;;;;;;2.70;2.50;;;;;;;14.11;100.00;100557.69;5116362;27;20561;-72
2021/09/26 01:50:51;;;;;;;2.90;2.70;;;;;;;14.12;100.00;100549.13;5134560;27;20171;-72
2021/09/26 01:53:18;;;;;;;2.80;2.60;;;;;;;13.90;100.00;100552.16;5134981;27;20252;-72
2021/09/26 01:55:45;;;;;;;3.47;2.47;;;;;;;13.67;100.00;100552.41;5134351;27;20193;-72
2021/09/26 01:58:14;;;;;;;2.67;2.37;;;;;;;13.60;100.00;100554.88;5134364;27;20631;-72
2021/09/26 02:00:40;;;;;;;2.73;2.53;;;;;;;13.56;100.00;100553.09;5134170;27;20168;-72
2021/09/26 02:03:06;;;;;;;2.60;2.40;;;;;;;13.65;100.00;100567.63;5115728;27;20776;-72
2021/09/26 02:05:32;;;;;;;2.73;2.53;;;;;;;13.45;100.00;100536.19;5133925;27;20180;-72
2021/09/26 02:08:00;;;;;;;3.57;3.27;;;;;;;13.47;100.00;100561.38;5134141;27;20171;-72
2021/09/26 02:10:28;;;;;;;3.53;2.70;;;;;;;13.43;100.00;100557.66;5134157;27;20176;-72
2021/09/26 02:12:56;;;;;;;3.53;2.43;;;;;;;13.66;100.00;100556.31;5133013;27;20742;-72
2021/09/26 02:15:24;;;;;;;2.67;2.40;;;;;;;13.78;100.00;100561.09;5133756;27;20172;-72
2021/09/26 02:17:52;;;;;;;4.53;2.20;;;;;;;13.70;100.00;100562.75;5134145;27;20199;-72
2021/09/26 02:20:19;;;;;;;2.70;2.50;;;;;;;13.56;100.00;100564.09;5134084;27;20180;-72
2021/09/26 02:22:48;;;;;;;2.77;2.57;;;;;;;13.35;100.00;100553.03;5133919;27;20377;-72
2021/09/26 02:25:16;;;;;;;2.57;2.37;;;;;;;13.37;100.00;100564.47;5133856;27;20571;-72
2021/09/26 02:27:43;;;;;;;3.37;2.77;;;;;;;13.02;100.00;100552.75;5133850;27;20245;-72
2021/09/26 02:30:09;;;;;;;2.97;2.77;;;;;;;13.30;100.00;100550.44;5133854;27;20183;-72
2021/09/26 02:32:35;;;;;;;3.63;2.73;;;;;;;13.48;100.00;100559.44;5133616;27;20184;-72
2021/09/26 02:35:02;;;;;;;2.90;2.70;;;;;;;13.58;100.00;100562.63;5133383;27;20172;-72
2021/09/26 02:37:27;;;;;;;7.63;2.63;;;;;;;13.63;100.00;100558.91;5133681;27;20192;-72
2021/09/26 02:39:53;;;;;;;3.07;2.87;;;;;;;13.66;100.00;100553.56;5133480;27;20204;-72
2021/09/26 02:42:21;;;;;;;3.50;3.20;;;;;;;13.66;100.00;100553.56;5133370;27;20172;-72
2021/09/26 02:44:59;;;;;;;2.73;2.53;;;;;;;13.28;100.00;100548.03;5133331;27;20182;-72
2021/09/26 02:47:29;;;;;;;7.03;2.97;;;;;;;13.30;100.00;100537.53;5133385;27;20168;-72
2021/09/26 02:49:56;;;;;;;3.27;2.97;;;;;;;13.07;100.00;100536.09;5133137;27;20210;-72
2021/09/26 02:52:23;;;;;;;2.60;2.40;;;;;;;12.68;100.00;100520.66;5133293;27;20172;-72
2021/09/26 02:54:50;;;;;;;3.13;2.93;;;;;;;12.79;100.00;100524.69;5133052;27;20632;-72
2021/09/26 02:57:15;;;;;;;3.40;3.10;;;;;;;12.97;100.00;100536.44;5133066;27;20164;-72
2021/09/26 02:59:41;;;;;;;6.33;3.23;;;;;;;13.00;100.00;100538.53;5132989;27;20233;-72
2021/09/26 03:02:07;;;;;;;3.10;2.90;;;;;;;12.95;100.00;100533.22;5133111;27;20819;-72
2021/09/26 03:04:44;;;;;;;3.60;3.30;;;;;;;12.90;100.00;100528.72;5132683;27;20226;-72
2021/09/26 03:07:12;;;;;;;3.33;3.03;;;;;;;12.63;100.00;100531.81;5132972;27;20537;-72
2021/09/26 03:09:37;;;;;;;3.70;3.40;;;;;;;12.47;100.00;100528.75;5133077;27;20283;-72
2021/09/26 03:12:13;;;;;;;3.37;3.17;;;;;;;12.23;100.00;100514.69;5114483;27;20517;-72
2021/09/26 03:14:39;;;;;;;3.30;3.10;;;;;;;12.21;100.00;100506.78;5132614;27;20168;-72
2021/09/26 03:17:04;;;;;;;3.40;3.20;;;;;;;12.31;100.00;100533.09;5132782;27;20184;-72
2021/09/26 03:19:30;;;;;;;3.87;3.50;;;;;;;12.48;100.00;100531.16;5132756;27;20637;-72
2021/09/26 03:21:55;;;;;;;3.17;2.87;;;;;;;12.50;100.00;100534.38;5132553;27;20196;-72
2021/09/26 03:24:20;;;;;;;2.67;2.47;;;;;;;12.42;100.00;100513.25;5132249;27;20180;-72
2021/09/26 03:26:46;;;;;;;3.33;3.03;;;;;;;12.37;100.00;100529.03;5132881;27;20173;-72
2021/09/26 03:29:11;;;;;;;3.57;3.27;;;;;;;12.42;100.00;100517.91;5132172;27;20239;-72
2021/09/26 03:31:36;;;;;;;3.90;2.83;;;;;;;12.34;100.00;100521.47;5132786;27;20651;-72
2021/09/26 03:34:02;;;;;;;3.30;2.97;;;;;;;12.04;100.00;100493.88;5139866;27;20179;-72
2021/09/26 03:36:27;;;;;;;3.40;3.10;;;;;;;11.91;100.00;100497.56;5139859;27;20168;-72
2021/09/26 03:38:52;;;;;;;3.60;3.30;;;;;;;12.22;100.00;100500.19;5133897;27;20165;-72
2021/09/26 03:41:17;;;;;;;3.03;2.80;;;;;;;12.32;100.00;100501.81;5133013;27;20172;-72
2021/09/26 03:43:43;;;;;;;2.83;2.63;;;;;;;12.45;100.00;100500.84;5132431;27;20169;-72
2021/09/26 03:46:08;;;;;;;3.10;2.90;;;;;;;12.64;100.00;100495.03;5132388;27;20306;-72
2021/09/26 03:48:34;;;;;;;2.63;2.43;;;;;;;12.77;100.00;100521.47;5132294;27;20275;-72
2021/09/26 03:50:59;;;;;;;3.77;2.40;;;;;;;12.86;100.00;100540.63;5114009;27;20180;-72
2021/09/26 03:53:24;;;;;;;2.97;2.70;;;;;;;12.85;100.00;100522.59;5132027;27;20171;-72
2021/09/26 03:55:50;;;;;;;2.67;2.47;;;;;;;12.95;100.00;100514.03;5132204;27;20255;-72
2021/09/26 03:58:15;;;;;;;2.87;2.67;;;;;;;12.94;100.00;100518.72;5132310;27;20165;-72
2021/09/26 04:00:41;;;;;;;2.20;2.10;;;;;;;12.85;100.00;100526.13;5132109;27;20192;-72
2021/09/26 04:03:06;;;;;;;2.00;1.90;;;;;;;12.76;100.00;100519.88;5132171;27;20252;-72
2021/09/26 04:05:31;;;;;;;2.43;2.27;;;;;;;12.60;100.00;100527.78;5131767;27;20555;-72
2021/09/26 04:07:57;;;;;;;2.03;1.93;;;;;;;12.44;100.00;100511.00;5132122;27;20168;-72
2021/09/26 04:10:22;;;;;;;2.40;2.20;;;;;;;12.33;100.00;100526.16;5131991;27;20172;-72
2021/09/26 04:12:48;;;;;;;2.33;2.10;;;;;;;12.06;100.00;100515.47;5131898;27;20177;-72
2021/09/26 04:15:14;;;;;;;2.60;2.40;;;;;;;12.19;100.00;100517.28;5131622;27;20195;-72
2021/09/26 04:17:39;;;;;;;7.07;2.53;;;;;;;12.30;100.00;100517.78;5131750;27;20176;-72
2021/09/26 04:20:06;;;;;;;2.53;2.27;;;;;;;12.39;100.00;100499.38;5131749;27;20180;-72
2021/09/26 04:22:33;;;;;;;3.60;2.03;;;;;;;12.41;100.00;100500.66;5131877;27;20179;-72
2021/09/26 04:24:58;;;;;;;2.40;2.20;;;;;;;12.40;100.00;100504.53;5131603;27;20177;-72
2021/09/26 04:27:24;;;;;;;2.73;2.53;;;;;;;12.32;100.00;100496.34;5131901;27;20221;-72
2021/09/26 04:29:49;;;;;;;2.77;2.20;;;;;;;12.34;100.00;100507.78;5131745;27;20231;-72
2021/09/26 04:32:15;;;;;;;3.07;2.73;;;;;;;12.42;100.00;100496.81;5131813;28;20702;-72
2021/09/26 04:34:41;;;;;;;2.93;2.37;;;;;;;12.66;100.00;100495.50;5131372;28;20165;-72
2021/09/26 04:37:06;;;;;;;3.63;2.83;;;;;;;12.71;100.00;100495.34;5137469;27;20168;-72
2021/09/26 04:39:32;;;;;;;2.70;2.50;;;;;;;12.71;100.00;100501.63;5138485;27;20239;-72
2021/09/26 04:41:57;;;;;;;3.03;2.83;;;;;;;12.65;100.00;100496.66;5138507;27;20176;-72
2021/09/26 04:44:22;;;;;;;3.57;3.27;;;;;;;12.32;100.00;100490.84;5138119;27;20228;-72
2021/09/26 04:46:48;;;;;;;3.13;2.67;;;;;;;12.24;100.00;100514.38;5138312;27;20254;-72
2021/09/26 04:49:13;;;;;;;2.90;2.63;;;;;;;12.44;100.00;100518.41;5138250;27;20567;-72
2021/09/26 04:51:39;;;;;;;3.40;3.10;;;;;;;12.50;100.00;100520.66;5138345;27;20180;-72
2021/09/26 04:54:05;;;;;;;4.77;2.60;;;;;;;12.60;100.00;100496.81;5138407;27;20168;-72
2021/09/26 04:56:31;;;;;;;3.77;2.43;;;;;;;12.65;100.00;100507.63;5138297;27;20168;-72
2021/09/26 04:58:56;;;;;;;2.97;2.30;;;;;;;12.73;100.00;100504.03;5119883;27;20176;-72
2021/09/26 05:01:22;;;;;;;2.43;2.23;;;;;;;12.86;100.00;100503.06;5138618;27;20168;-72
2021/09/26 05:03:47;;;;;;;2.47;2.27;;;;;;;12.91;100.00;100519.38;5137998;27;20203;-72
2021/09/26 05:06:14;;;;;;;2.63;2.00;;;;;;;12.92;100.00;100518.22;5138510;27;20184;-72
2021/09/26 05:08:40;;;;;;;2.50;2.30;;;;;;;12.92;100.00;100509.19;5138204;27;20202;-72
2021/09/26 05:11:06;;;;;;;2.50;2.30;;;;;;;12.90;100.00;100530.66;5138188;27;20177;-71
2021/09/26 05:13:31;;;;;;;2.40;1.73;;;;;;;12.89;100.00;100529.06;5138262;27;20169;-72
2021/09/26 05:15:56;;;;;;;2.00;1.90;;;;;;;12.80;100.00;100505.19;5137963;27;20172;-72
2021/09/26 05:18:22;;;;;;;2.93;2.67;;;;;;;12.82;100.00;100502.91;5138165;27;20263;-72
2021/09/26 05:20:49;;;;;;;6.57;2.30;;;;;;;12.91;100.00;100502.91;5138138;27;20186;-71
2021/09/26 05:23:14;;;;;;;2.73;2.53;;;;;;;12.98;100.00;100505.13;5138142;27;20255;-72
2021/09/26 05:25:40;;;;;;;2.80;2.60;;;;;;;13.03;100.00;100515.97;5137908;27;20272;-72
2021/09/26 05:28:05;;;;;;;2.90;2.30;;;;;;;13.13;100.00;100588.84;5138001;27;20653;-72
2021/09/26 05:30:33;;;;;;;2.43;2.23;;;;;;;13.24;100.00;100540.78;5137948;27;20176;-72
2021/09/26 05:32:59;;;;;;;2.30;2.10;;;;;;;13.34;100.00;100530.25;5137966;27;20165;-72
2021/09/26 05:35:26;;;;;;;2.83;2.63;;;;;;;13.40;100.00;100525.41;5137788;27;20179;-72
2021/09/26 05:37:51;;;;;;;4.97;2.40;;;;;;;13.45;100.00;100524.41;5137834;27;20555;-72
2021/09/26 05:40:16;;;;;;;1.90;1.80;;;;;;;13.55;100.00;100540.50;5137701;27;20179;-72
2021/09/26 05:42:43;;;;;;;2.40;2.20;;;;;;;13.52;100.00;100517.28;5137801;27;20493;-72
2021/09/26 05:45:09;;;;;;;2.43;2.23;;;;;;;13.42;100.00;100523.13;5137686;27;20528;-72
2021/09/26 05:47:34;;;;;;;2.60;2.50;;;;;;;13.52;100.00;100521.97;5136298;27;20173;-73
2021/09/26 05:49:59;;;;;;;2.57;2.37;;;;;;;13.45;100.00;100525.19;5134547;27;20204;-71
2021/09/26 05:52:25;;;;;;;2.40;2.20;;;;;;;13.65;100.00;100524.50;5134495;27;20172;-72
2021/09/26 05:54:50;;;;;;;2.27;1.90;;;;;;;13.83;100.00;100522.47;5134266;27;20202;-72
2021/09/26 05:57:15;;;;;;;2.43;2.23;;;;;;;13.71;100.00;100522.34;5134373;27;20177;-72
2021/09/26 05:59:41;;;;;;;2.17;2.07;;;;;;;13.44;100.00;100506.31;5134392;27;20172;-72
2021/09/26 06:02:10;;;;;;;2.97;2.63;;;;;;;13.60;100.00;100519.19;5134148;27;20173;-72
2021/09/26 06:04:36;;;;;;;2.50;2.30;;;;;;;13.24;100.00;100496.88;5134090;27;20345;-72
2021/09/26 06:07:02;;;;;;;3.07;2.87;;;;;;;13.31;100.00;100502.69;5134202;27;20252;-72
2021/09/26 06:09:28;;;;;;;5.23;2.63;;;;;;;13.27;100.00;100518.97;5134108;27;20254;-72
2021/09/26 06:11:54;;;;;;;2.93;2.73;;;;;;;13.45;100.00;100518.91;5115823;27;20577;-72
2021/09/26 06:14:19;;;;;;;2.80;2.60;;;;;;;13.56;100.00;100525.66;5115554;27;20176;-72
2021/09/26 06:16:45;;;;;;;2.80;2.60;;;;;;;13.74;100.00;100521.69;5133975;27;20177;-72
2021/09/26 06:19:10;;;;;;;3.03;2.80;;;;;;;13.83;100.00;100518.91;5134023;27;20235;-72
2021/09/26 06:21:35;;;;;;;2.70;2.50;;;;;;;13.92;100.00;100522.44;5133912;27;20825;-72
2021/09/26 06:24:01;;;;;;;2.80;2.57;;;;;;;14.02;100.00;100519.28;5115303;27;20183;-72
2021/09/26 06:26:26;;;;;;;3.37;3.07;;;;;;;14.00;100.00;100516.06;5133840;27;20172;-72
2021/09/26 06:28:52;;;;;;;2.70;2.50;;;;;;;14.11;100.00;100511.78;5133819;27;20318;-72
2021/09/26 06:31:19;;;;;;;2.67;2.47;;;;;;;14.22;100.00;100520.47;5133617;27;20169;-72
2021/09/26 06:33:44;;;;;;;2.70;2.50;;;;;;;14.35;100.00;100519.41;5133556;27;20524;-72
2021/09/26 06:36:10;;;;;;;2.40;2.20;;;;;;;14.44;100.00;100525.66;5133789;27;20184;-72
2021/09/26 06:38:35;;;;;;;4.13;2.77;;;;;;;14.53;100.00;100528.34;5133597;27;20172;-72
2021/09/26 06:41:01;;;;;;;2.63;2.43;;;;;;;14.59;100.00;100525.03;5133720;27;20740;-72
2021/09/26 06:43:26;;;;;;;5.43;2.47;;;;;;;14.65;100.00;100531.16;5133628;27;20260;-72
2021/09/26 06:45:51;;;;;;;3.60;2.67;;;;;;;14.73;100.00;100535.75;5133463;27;20169;-72
2021/09/26 06:48:17;;;;;;;2.60;2.40;;;;;;;14.78;100.00;100534.78;5133385;27;20248;-72
2021/09/26 06:50:42;;;;;;;2.83;2.23;;;;;;;14.82;100.00;100546.69;5133499;27;20599;-72
2021/09/26 06:53:07;;;;;;;2.87;2.17;;;;;;;14.86;100.00;100547.63;5133462;27;20168;-71
2021/09/26 06:55:33;;;;;;;2.03;1.83;;;;;;;14.95;100.00;100539.31;5133533;27;20672;-72
2021/09/26 06:57:58;;;;;;;3.53;2.30;;;;;;;14.96;100.00;100541.72;5133258;27;20168;-72
2021/09/26 07:00:23;;;;;;;2.70;2.47;;;;;;;15.00;100.00;100545.38;5132696;27;20169;-72
2021/09/26 07:02:51;;;;;;;2.40;2.17;;;;;;;15.03;100.00;100543.91;5133197;27;20186;-72
2021/09/26 07:05:17;;;;;;;2.50;2.30;;;;;;;15.03;100.00;100544.72;5132832;27;20602;-72
2021/09/26 07:07:44;;;;;;;2.70;2.50;;;;;;;15.06;100.00;100543.25;5133211;27;20255;-72
2021/09/26 07:10:10;;;;;;;2.30;2.10;;;;;;;15.19;100.00;100555.91;5132966;27;20208;-73
2021/09/26 07:12:35;;;;;;;2.13;1.93;;;;;;;15.34;100.00;100548.94;5132977;27;20527;-73
2021/09/26 07:15:01;;;;;;;2.17;2.00;;;;;;;15.44;100.00;100552.03;5132752;27;20237;-73
2021/09/26 07:17:27;;;;;;;2.70;1.97;;;;;;;15.53;100.00;100565.72;5133029;27;20165;-74
2021/09/26 07:19:53;;;;;;;2.43;2.23;;;;;;;15.57;100.00;100568.59;5132998;27;20593;-73
2021/09/26 07:22:23;;;;;;;1.90;1.80;;;;;;;15.67;100.00;100566.25;5124476;27;20177;-72
2021/09/26 07:24:48;;;;;;;1.63;1.53;;;;;;;15.74;100.00;100552.69;5093994;28;20252;-73
2021/09/26 07:27:15;;;;;;;2.30;2.20;;;;;;;15.79;100.00;100556.38;5125271;27;20268;-73
2021/09/26 07:29:41;;;;;;;2.30;2.20;;;;;;;15.84;100.00;100558.91;5132337;27;20196;-73
2021/09/26 07:32:07;;;;;;;2.73;2.53;;;;;;;15.92;100.00;100567.06;5132271;27;20187;-74
2021/09/26 07:34:32;;;;;;;1.77;1.67;;;;;;;16.08;100.00;100575.44;5132216;27;20177;-73
2021/09/26 07:36:57;;;;;;;2.37;2.17;;;;;;;16.18;100.00;100571.41;5132388;27;20308;-73
2021/09/26 07:39:23;;;;;;;3.90;2.07;;;;;;;16.30;100.00;100577.72;5132485;27;20204;-73
2021/09/26 07:41:48;;;;;;;1.93;1.83;;;;;;;16.36;100.00;100578.28;5132315;27;20200;-72
2021/09/26 07:44:13;;;;;;;3.60;2.43;;;;;;;16.42;100.00;100573.34;5131955;27;20644;-73
2021/09/26 07:46:43;;;;;;;2.40;2.20;;;;;;;16.49;100.00;100577.13;5132621;27;20704;-73
2021/09/26 07:49:08;;;;;;;3.90;2.57;;;;;;;16.60;100.00;100569.94;5132447;27;20184;-73
2021/09/26 07:51:34;;;;;;;2.00;1.90;;;;;;;16.64;100.00;100575.59;5132266;27;20179;-73
2021/09/26 07:53:59;;;;;;;2.47;2.27;;;;;;;16.70;100.00;100576.19;5131382;27;20252;-73
2021/09/26 07:56:24;;;;;;;3.13;2.17;;;;;;;16.75;100.00;100578.69;5128805;27;20177;-73
2021/09/26 07:58:50;;;;;;;3.10;2.17;;;;;;;16.86;100.00;100575.09;5129245;27;20189;-72
2021/09/26 08:01:15;;;;;;;3.03;2.63;;;;;;;17.01;100.00;100573.53;5131338;27;20168;-72
2021/09/26 08:03:41;;;;;;;1.80;1.70;;;;;;;17.15;100.00;100578.66;5128833;27;20184;-73
2021/09/26 08:06:06;;;;;;;2.07;1.97;;;;;;;17.21;100.00;100578.06;5131586;27;20188;-74
2021/09/26 08:08:35;;;;;;;2.20;2.10;;;;;;;17.28;100.00;100571.91;5132172;27;20646;-73
2021/09/26 08:11:02;;;;;;;2.10;1.90;;;;;;;17.40;100.00;100574.63;5130994;27;20573;-73
2021/09/26 08:13:27;;;;;;;2.10;2.00;;;;;;;17.46;100.00;100566.84;5131842;27;20708;-73
2021/09/26 08:15:53;;;;;;;2.70;2.50;;;;;;;17.48;100.00;100567.28;5131685;27;20177;-73
2021/09/26 08:18:18;;;;;;;6.97;2.37;;;;;;;17.53;100.00;100567.84;5113497;27;20202;-72
2021/09/26 08:20:43;;;;;;;2.37;2.17;;;;;;;17.51;100.00;100569.38;5131692;27;20592;-73
2021/09/26 08:23:09;;;;;;;3.30;2.60;;;;;;;17.70;100.00;100575.03;5131605;27;20176;-74
2021/09/26 08:25:35;;;;;;;2.40;2.20;;;;;;;17.84;100.00;100569.84;5129045;27;20233;-74
2021/09/26 08:28:00;;;;;;;2.13;2.03;;;;;;;17.94;100.00;100563.00;5128901;27;20572;-74
2021/09/26 08:30:26;;;;;;;3.03;2.80;;;;;;;18.10;100.00;100560.22;5131420;27;20185;-73
2021/09/26 08:32:51;;;;;;;2.90;2.70;;;;;;;18.23;100.00;100556.16;5131338;27;20168;-73
2021/09/26 08:35:17;;;;;;;3.07;2.73;;;;;;;18.23;99.52;100553.41;5131321;27;20179;-75
2021/09/26 08:37:42;;;;;;;3.13;2.73;;;;;;;18.19;98.53;100557.22;5131608;27;20168;-73
2021/09/26 08:40:10;;;;;;;2.93;2.63;;;;;;;18.26;99.67;100560.19;5131508;28;20184;-74
2021/09/26 08:42:37;;;;;;;3.17;2.97;;;;;;;18.24;99.74;100563.31;5131197;28;20566;-73
2021/09/26 08:45:05;;;;;;;2.80;2.60;;;;;;;18.32;100.00;100562.28;5131466;28;20217;-74
2021/09/26 08:47:36;;;;;;;2.90;2.70;;;;;;;18.40;100.00;100561.28;5131433;28;20180;-73
2021/09/26 08:50:02;;;;;;;2.93;2.73;;;;;;;18.42;99.62;100564.50;5131403;28;20200;-73
2021/09/26 08:52:27;;;;;;;2.90;2.70;;;;;;;18.50;98.65;100568.22;5131394;28;20191;-74
2021/09/26 08:54:52;;;;;;;4.17;2.70;;;;;;;18.67;94.86;100562.31;5131012;28;20506;-73
2021/09/26 08:57:18;;;;;;;3.07;2.87;;;;;;;18.79;94.43;100569.66;5131324;28;20180;-73
2021/09/26 08:59:44;;;;;;;3.10;2.90;;;;;;;18.97;93.00;100573.59;5131343;28;20237;-73
2021/09/26 09:02:09;;;;;;;2.97;2.77;;;;;;;19.06;93.04;100573.38;5131164;28;20177;-73
2021/09/26 09:04:42;;;;;;;3.10;2.90;;;;;;;19.14;92.95;100568.78;5130841;28;20220;-72
2021/09/26 09:07:11;;;;;;;2.67;2.47;;;;;;;19.31;92.26;100562.78;5129983;28;20187;-73
2021/09/26 09:10:06;;;;;;;3.40;3.10;;;;;;;19.39;90.42;100555.41;5127406;28;20208;-73
2021/09/26 09:12:36;;;;;;;2.90;2.70;;;;;;;19.50;90.37;100551.63;5108973;28;20216;-73
2021/09/26 09:15:13;;;;;;;3.37;3.10;;;;;;;19.67;87.25;100558.69;5130800;27;20258;-73
2021/09/26 09:17:41;;;;;;;3.43;3.23;;;;;;;19.87;89.71;100563.00;5131147;27;20168;-73
2021/09/26 09:20:12;;;;;;;2.50;2.30;;;;;;;19.99;87.38;100561.22;5131048;28;20176;-73
2021/09/26 09:22:38;;;;;;;2.97;2.73;;;;;;;20.01;84.40;100556.09;5129786;27;20260;-73
2021/09/26 09:25:03;;;;;;;5.33;3.10;;;;;;;20.16;83.96;100549.56;5134666;27;20185;-73
2021/09/26 09:27:29;;;;;;;3.33;3.13;;;;;;;20.18;84.62;100544.44;5134950;27;20176;-73
2021/09/26 09:29:54;;;;;;;2.90;2.70;;;;;;;20.26;82.36;100534.28;5134906;27;20203;-73
2021/09/26 09:32:22;;;;;;;3.50;3.10;;;;;;;20.31;82.90;100536.72;5134897;27;20176;-73
2021/09/26 09:34:49;;;;;;;3.60;3.30;;;;;;;20.37;85.98;100538.78;5134971;27;20173;-73
2021/09/26 09:37:18;;;;;;;3.33;3.03;;;;;;;20.48;86.20;100536.97;5134809;27;20218;-73
2021/09/26 09:40:09;;;;;;;3.23;3.03;;;;;;;20.58;82.83;100545.84;5134743;27;20256;-73
2021/09/26 09:42:45;;;;;;;3.40;3.20;;;;;;;20.61;83.92;100540.31;5134582;27;20643;-73
2021/09/26 09:45:22;;;;;;;6.17;3.23;;;;;;;20.60;85.66;100537.94;5134787;27;20313;-73
2021/09/26 09:48:02;;;;;;;3.57;3.37;;;;;;;20.81;81.77;100538.19;5134592;27;20608;-73
2021/09/26 09:50:29;;;;;;;3.30;3.10;;;;;;;20.89;83.01;100536.31;5134270;27;20181;-73
2021/09/26 09:52:55;;;;;;;3.50;3.20;;;;;;;20.99;84.38;100539.22;5134382;27;20213;-73
2021/09/26 09:55:24;;;;;;;3.43;3.13;;;;;;;21.21;85.19;100534.66;5115776;27;20177;-73
2021/09/26 09:57:50;;;;;;;4.20;3.10;;;;;;;21.23;79.71;100539.84;5140741;27;20630;-72
2021/09/26 10:00:22;;;;;;;3.13;2.90;;;;;;;21.16;81.59;100548.13;5142241;27;20173;-73
2021/09/26 10:02:48;;;;;;;3.70;3.40;;;;;;;21.31;81.80;100547.13;5117243;27;20168;-73
2021/09/26 10:05:33;;;;;;;6.47;2.53;;;;;;;21.36;80.44;100552.31;5134537;27;20183;-73
2021/09/26 10:07:58;;;;;;;3.67;3.47;;;;;;;21.39;78.35;100551.53;5134157;27;20357;-73
2021/09/26 10:10:33;;;;;;;3.40;3.10;;;;;;;21.45;78.26;100554.81;5134149;27;20204;-73
2021/09/26 10:13:13;;;;;;;2.67;2.47;;;;;;;21.40;77.76;100550.38;5134544;27;20191;-72
2021/09/26 10:15:39;;;;;;;3.20;3.00;;;;;;;21.36;78.62;100425.25;5134128;27;20176;-73
2021/09/26 10:18:04;;;;;;;3.40;3.10;;;;;;;21.45;80.02;100471.41;5134263;27;20507;-72
2021/09/26 10:20:31;;;;;;;3.00;2.80;;;;;;;21.56;79.00;100472.28;5133965;27;20256;-74
2021/09/26 10:22:57;;;;;;;4.00;3.70;;;;;;;21.67;79.11;100507.31;5134046;27;20243;-74
2021/09/26 10:25:23;;;;;;;3.43;3.23;;;;;;;21.72;79.55;100502.59;5133759;27;20625;-74
2021/09/26 10:27:51;;;;;;;3.70;3.43;;;;;;;21.89;79.06;100511.06;5133862;27;20647;-74
2021/09/26 10:30:17;;;;;;;3.20;2.90;;;;;;;21.97;77.86;100507.13;5133880;27;20212;-74
2021/09/26 10:32:44;;;;;;;3.23;2.97;;;;;;;22.05;78.83;100510.81;5134363;27;20174;-74
2021/09/26 10:35:10;;;;;;;3.37;3.17;;;;;;;22.12;77.51;100512.81;5132601;27;20181;-74
2021/09/26 10:37:36;;;;;;;3.23;3.00;;;;;;;22.15;78.80;100510.09;5133870;27;20265;-74
2021/09/26 10:40:03;;;;;;;2.90;2.70;;;;;;;22.21;76.86;100513.28;5133748;27;20166;-74
2021/09/26 10:42:35;;;;;;;2.83;2.63;;;;;;;22.23;76.49;100520.06;5133642;27;20296;-74
2021/09/26 10:45:02;;;;;;;4.10;3.17;;;;;;;22.18;77.49;100503.75;5133432;27;20266;-75
2021/09/26 10:47:32;;;;;;;3.90;3.60;;;;;;;21.95;77.63;100512.28;5133500;27;20164;-74
2021/09/26 10:50:01;;;;;;;3.13;2.93;;;;;;;21.95;76.23;100506.72;5133376;27;20204;-74
2021/09/26 10:52:33;;;;;;;2.93;2.73;;;;;;;22.34;79.53;100510.97;5115069;27;20221;-74
2021/09/26 10:55:14;;;;;;;3.30;3.00;;;;;;;22.42;75.68;100521.78;5133436;27;20717;-74
2021/09/26 10:57:39;;;;;;;5.00;2.47;;;;;;;22.43;75.07;100511.44;5133236;27;20507;-75
2021/09/26 11:00:05;;;;;;;3.37;3.07;;;;;;;22.65;78.08;100523.47;5133123;27;20172;-74
2021/09/26 11:02:30;;;;;;;2.83;2.63;;;;;;;22.74;75.72;100509.97;5133240;27;20176;-74
2021/09/26 11:04:58;;;;;;;2.80;2.60;;;;;;;22.73;75.29;100517.53;5132863;27;20180;-74
2021/09/26 11:07:29;;;;;;;4.07;3.67;;;;;;;22.72;73.88;100512.38;5133112;27;20179;-74
2021/09/26 11:09:55;;;;;;;4.03;3.73;;;;;;;22.77;73.83;100507.19;5132984;27;20659;-75
2021/09/26 11:12:48;;;;;;;3.57;3.37;;;;;;;22.87;74.18;100494.53;5132728;27;20172;-75
2021/09/26 11:15:20;;;;;;;3.00;2.80;;;;;;;23.10;74.52;100508.09;5132346;27;20216;-74
2021/09/26 11:17:49;;;;;;;3.37;3.17;;;;;;;23.13;72.74;100501.75;5132741;27;20165;-74
2021/09/26 11:20:26;;;;;;;3.03;2.83;;;;;;;23.23;73.10;100495.38;5132401;27;20268;-74
2021/09/26 11:23:04;;;;;;;3.23;2.93;;;;;;;23.27;72.24;100506.53;5114202;27;20215;-75